Terminal Aerodrome Forecast
Issued by NWS Omaha/Valley, NE

Home | Current Version | Previous Version | Graphics & Text | Print | Product List | Glossary On
Versions: 1 2 3 4 5 6 7 8 9 10 11 12 13 14 15 16 17 18 19 20 21 22 23 24 25 26 27 28 29 30 31 32 33 34 35 36 37 38 39 40 41 42 43 44
000
FTUS43 KOAX 231503 AAA
TAFOFK
TAF AMD
KOFK 231503Z 2315/2412 15012KT P6SM OVC015 WS010/16035KT
     FM231800 17016KT P6SM OVC012 WS020/19042KT
     FM232300 16013G21KT P6SM SCT025 BKN120
     FM240200 18014G25KT P6SM VCSH SCT030 OVC070 WS020/18040KT
     FM240700 19009KT 6SM -SHRA OVC035=

USA.gov is the U.S. government's official web portal to all federal, state and local government web resources and services.